createdAt,value
2019-05-19T00:03:12.417Z,4.3
2019-05-19T00:18:05.534Z,4.4
2019-05-19T00:33:28.433Z,3.8
2019-05-19T00:48:26.790Z,4
2019-05-19T01:03:16.938Z,3.6
2019-05-19T01:17:50.576Z,3.9
2019-05-19T01:33:41.601Z,3.7
2019-05-19T01:48:42.449Z,3.7
2019-05-19T02:03:41.579Z,3.4
2019-05-19T02:18:22.763Z,3.7
2019-05-19T02:33:03.338Z,3.6
2019-05-19T02:48:05.628Z,3.7
2019-05-19T03:03:34.577Z,3.6
2019-05-19T03:18:22.842Z,3.4
2019-05-19T03:33:19.525Z,3.3
2019-05-19T03:47:56.245Z,3.2
2019-05-19T04:03:42.324Z,3.2
2019-05-19T04:18:25.232Z,3.2
2019-05-19T04:33:03.753Z,3.3
2019-05-19T04:48:42.711Z,3.4
2019-05-19T05:03:36.826Z,3.1
2019-05-19T05:18:36.255Z,3.2
2019-05-19T05:33:26.010Z,3.4
2019-05-19T05:48:10.489Z,3.4
2019-05-19T06:03:12.088Z,4.7
2019-05-19T06:18:53.018Z,6.1
2019-05-19T06:33:50.808Z,5.8
2019-05-19T06:48:29.609Z,5.6
2019-05-19T07:03:16.346Z,5.9
2019-05-19T07:18:41.776Z,6.9
2019-05-19T07:33:30.804Z,5.8
2019-05-19T07:48:26.619Z,7.7
2019-05-19T08:04:06.699Z,5.7
2019-05-19T08:18:58.982Z,5.5
2019-05-19T08:33:52.441Z,4.6
2019-05-19T08:41:17.521Z,4.6
2019-05-19T08:48:17.082Z,4.6
2019-05-19T09:03:29.873Z,4.4
2019-05-19T09:18:48.499Z,4.5
2019-05-19T09:34:16.477Z,4.2
2019-05-19T09:48:30.606Z,4.5
2019-05-19T10:03:55.790Z,4.1
2019-05-19T10:18:26.139Z,3.6
2019-05-19T10:33:41.557Z,3.8
2019-05-19T10:49:20.703Z,3.6
2019-05-19T11:04:18.708Z,3.5
2019-05-19T11:18:41.125Z,3.3
2019-05-19T11:33:51.139Z,3.3
2019-05-19T11:49:06.245Z,3
2019-05-19T12:03:28.915Z,3.3
2019-05-19T12:18:35.363Z,3.1
2019-05-19T12:33:51.081Z,3.1
2019-05-19T12:33:51.637Z,3.1
2019-05-19T12:33:51.803Z,3.1
2019-05-19T12:48:51.163Z,3
2019-05-19T13:03:59.170Z,3
2019-05-19T13:14:26.953Z,3
2019-05-19T13:19:17.378Z,3.1
2019-05-19T13:34:02.501Z,2.6
2019-05-19T13:48:44.789Z,2.7
2019-05-19T14:03:52.003Z,2.5
2019-05-19T14:33:35.993Z,2.9
2019-05-19T14:49:24.503Z,2.4
2019-05-19T15:18:40.653Z,2.5
2019-05-19T15:34:00.514Z,2.5
2019-05-19T15:49:34.228Z,2.4
2019-05-19T16:04:17.561Z,2.3
2019-05-19T16:19:11.150Z,2.3
2019-05-19T16:34:00.125Z,2.2
2019-05-19T16:48:45.981Z,2.5
2019-05-19T17:04:29.918Z,2.4
2019-05-19T17:19:27.338Z,2.4
2019-05-19T17:34:24.810Z,2.2
2019-05-19T17:49:12.595Z,2.4
2019-05-19T18:03:59.804Z,2.3
2019-05-19T18:19:09.589Z,2.6
2019-05-19T18:34:09.688Z,2.4
2019-05-19T18:49:13.187Z,2.3
2019-05-19T19:04:04.976Z,2.5
2019-05-19T19:19:01.628Z,2.1
2019-05-19T19:33:58.240Z,2.3
2019-05-19T19:48:56.250Z,2.3
2019-05-19T20:04:04.092Z,2.1
2019-05-19T20:19:47.766Z,2.4
2019-05-19T20:34:30.543Z,2.3
2019-05-19T20:49:12.949Z,2.5
2019-05-19T21:04:00.019Z,2.5
2019-05-19T21:19:57.395Z,2.8
2019-05-19T21:34:57.238Z,2.8
2019-05-19T21:49:10.524Z,2.8
2019-05-19T22:04:17.472Z,2.7
2019-05-19T22:19:07.336Z,2.7
2019-05-19T22:34:06.136Z,2.7
2019-05-19T22:49:12.599Z,3
2019-05-19T23:05:07.315Z,2.6
2019-05-19T23:19:57.507Z,2.6
2019-05-19T23:34:52.180Z,2.5
2019-05-19T23:49:47.176Z,2.3
